createdAt,value
2019-02-03T00:01:59.592Z,69.60
2019-02-03T00:04:28.274Z,75.47
2019-02-03T00:07:03.343Z,77.07
2019-02-03T00:09:27.130Z,80.37
2019-02-03T00:11:55.788Z,77.00
2019-02-03T00:14:25.441Z,79.30
2019-02-03T00:16:54.193Z,70.97
2019-02-03T00:19:22.752Z,69.50
2019-02-03T00:21:51.668Z,72.20
2019-02-03T00:24:20.227Z,66.60
2019-02-03T00:26:48.837Z,77.30
2019-02-03T00:29:17.392Z,57.73
2019-02-03T00:31:46.401Z,68.70
2019-02-03T00:34:14.964Z,65.63
2019-02-03T00:36:43.867Z,54.00
2019-02-03T00:39:12.619Z,42.93
2019-02-03T00:41:41.249Z,58.43
2019-02-03T00:44:09.853Z,60.93
2019-02-03T00:46:38.524Z,55.27
2019-02-03T00:49:07.515Z,52.33
2019-02-03T00:51:36.202Z,57.60
2019-02-03T00:54:06.015Z,59.70
2019-02-03T00:56:34.747Z,56.03
2019-02-03T00:59:03.635Z,55.53
2019-02-03T01:01:32.412Z,62.60
2019-02-03T01:04:00.945Z,67.00
2019-02-03T01:06:29.499Z,66.60
2019-02-03T01:08:58.074Z,60.10
2019-02-03T01:11:26.678Z,67.17
2019-02-03T01:13:55.602Z,68.80
2019-02-03T01:16:24.299Z,67.40
2019-02-03T01:18:53.798Z,69.90
2019-02-03T01:21:22.784Z,75.63
2019-02-03T01:23:51.297Z,83.40
2019-02-03T01:26:19.886Z,74.13
2019-02-03T01:28:48.427Z,79.73
2019-02-03T01:31:17.031Z,93.53
2019-02-03T01:33:45.622Z,87.33
2019-02-03T01:36:14.561Z,87.60
2019-02-03T01:38:43.096Z,93.00
2019-02-03T01:41:11.652Z,103.33
2019-02-03T01:43:40.167Z,98.30
2019-02-03T01:46:08.755Z,99.27
2019-02-03T01:48:39.550Z,100.70
2019-02-03T01:51:08.201Z,95.60
2019-02-03T01:53:36.749Z,101.80
2019-02-03T01:56:05.702Z,103.33
2019-02-03T01:58:34.584Z,102.80
2019-02-03T02:01:03.259Z,108.03
2019-02-03T02:03:31.777Z,102.43
2019-02-03T02:06:00.425Z,113.77
2019-02-03T02:08:28.973Z,101.53
2019-02-03T02:10:57.604Z,114.63
2019-02-03T02:13:26.462Z,115.57
2019-02-03T02:15:55.136Z,121.80
2019-02-03T02:18:23.754Z,111.07
2019-02-03T02:20:52.312Z,108.90
2019-02-03T02:23:21.237Z,106.47
2019-02-03T02:25:50.182Z,109.43
2019-02-03T02:28:18.709Z,102.80
2019-02-03T02:30:47.400Z,98.63
2019-02-03T02:33:16.004Z,104.20
2019-02-03T02:35:44.636Z,105.00
2019-02-03T02:38:13.491Z,103.23
2019-02-03T02:40:42.280Z,102.80
2019-02-03T02:43:10.797Z,96.27
2019-02-03T02:45:39.356Z,104.53
2019-02-03T02:48:08.012Z,91.83
2019-02-03T02:50:41.804Z,95.83
2019-02-03T02:53:10.446Z,93.20
2019-02-03T02:55:39.016Z,96.43
2019-02-03T02:58:07.616Z,95.10
2019-02-03T03:00:36.144Z,93.87
2019-02-03T03:03:05.025Z,90.10
2019-02-03T03:05:33.576Z,85.00
2019-02-03T03:08:02.564Z,96.67
2019-02-03T03:10:31.090Z,94.70
2019-02-03T03:13:00.042Z,98.07
2019-02-03T03:15:28.657Z,94.43
2019-02-03T03:17:57.360Z,93.37
2019-02-03T03:20:25.961Z,97.57
2019-02-03T03:22:55.133Z,98.70
2019-02-03T03:25:23.751Z,87.60
2019-02-03T03:27:52.383Z,95.70
2019-02-03T03:30:23.736Z,99.93
2019-02-03T03:32:52.457Z,97.03
2019-02-03T03:35:21.099Z,92.50
2019-02-03T03:37:49.688Z,87.20
2019-02-03T03:40:21.045Z,96.87
2019-02-03T03:42:49.729Z,91.30
2019-02-03T03:45:18.319Z,91.50
2019-02-03T03:47:46.897Z,105.50
2019-02-03T03:50:16.636Z,91.63
2019-02-03T03:52:45.271Z,96.67
2019-02-03T03:55:14.294Z,90.73
2019-02-03T03:57:43.007Z,81.33
2019-02-03T04:00:23.046Z,99.17
2019-02-03T04:02:52.442Z,96.43
2019-02-03T04:05:21.212Z,93.70
2019-02-03T04:07:50.309Z,98.33
2019-02-03T04:10:23.741Z,86.20
2019-02-03T04:12:52.381Z,92.43
2019-02-03T04:15:21.935Z,98.00
2019-02-03T04:17:51.062Z,110.93
2019-02-03T04:20:30.349Z,106.13
2019-02-03T04:22:59.369Z,99.37
2019-02-03T04:25:27.966Z,105.80
2019-02-03T04:27:56.991Z,108.87
2019-02-03T04:30:26.951Z,103.03
2019-02-03T04:32:55.699Z,102.83
2019-02-03T04:35:24.271Z,107.50
2019-02-03T04:37:52.856Z,93.17
2019-02-03T04:40:22.743Z,103.03
2019-02-03T04:42:51.386Z,106.37
2019-02-03T04:45:22.423Z,105.27
2019-02-03T04:47:50.433Z,121.67
2019-02-03T04:50:20.894Z,102.50
2019-02-03T04:52:49.562Z,94.33
2019-02-03T04:55:20.516Z,128.57
2019-02-03T04:57:49.218Z,109.80
2019-02-03T05:00:20.644Z,111.63
2019-02-03T05:02:49.268Z,112.17
2019-02-03T05:05:18.280Z,120.60
2019-02-03T05:07:47.235Z,102.17
2019-02-03T05:10:16.505Z,104.57
2019-02-03T05:12:45.135Z,114.93
2019-02-03T05:15:16.415Z,121.97
2019-02-03T05:17:45.135Z,103.87
2019-02-03T05:20:16.400Z,112.60
2019-02-03T05:22:45.421Z,111.27
2019-02-03T05:25:14.883Z,113.10
2019-02-03T05:27:44.654Z,129.87
2019-02-03T05:30:24.913Z,104.90
2019-02-03T05:32:53.665Z,116.10
2019-02-03T05:35:22.451Z,118.03
2019-02-03T05:37:51.052Z,108.83
2019-02-03T05:40:20.016Z,129.47
2019-02-03T05:42:48.595Z,106.97
2019-02-03T05:45:19.277Z,112.20
2019-02-03T05:47:50.055Z,111.10
2019-02-03T05:50:20.198Z,112.23
2019-02-03T05:52:49.199Z,109.10
2019-02-03T05:55:18.923Z,110.83
2019-02-03T05:57:47.753Z,117.27
2019-02-03T06:00:23.424Z,113.83
2019-02-03T06:02:52.291Z,124.43
2019-02-03T06:05:20.824Z,111.77
2019-02-03T06:07:49.725Z,114.17
2019-02-03T06:10:19.007Z,109.80
2019-02-03T06:12:47.904Z,122.20
2019-02-03T06:15:17.117Z,109.83
2019-02-03T06:17:45.680Z,110.80
2019-02-03T06:20:19.500Z,106.67
2019-02-03T06:22:48.626Z,106.00
2019-02-03T06:25:17.777Z,96.40
2019-02-03T06:27:46.654Z,107.03
2019-02-03T06:30:27.137Z,107.70
2019-02-03T06:32:55.725Z,111.80
2019-02-03T06:35:24.341Z,107.30
2019-02-03T06:37:53.966Z,106.13
2019-02-03T06:40:22.978Z,101.97
2019-02-03T06:42:51.540Z,112.90
2019-02-03T06:45:27.526Z,107.57
2019-02-03T06:47:59.215Z,102.00
2019-02-03T06:50:27.554Z,99.00
2019-02-03T06:52:56.488Z,103.93
2019-02-03T06:55:25.043Z,108.83
2019-02-03T06:57:54.047Z,104.93
2019-02-03T07:00:22.574Z,113.00
2019-02-03T07:02:51.142Z,107.50
2019-02-03T07:05:19.654Z,109.30
2019-02-03T07:07:48.599Z,113.13
2019-02-03T07:10:17.134Z,108.97
2019-02-03T07:12:45.674Z,109.33
2019-02-03T07:15:14.400Z,119.73
2019-02-03T07:17:42.984Z,120.10
2019-02-03T07:20:19.050Z,100.87
2019-02-03T07:22:47.609Z,119.80
2019-02-03T07:25:16.180Z,106.47
2019-02-03T07:27:44.782Z,118.43
2019-02-03T07:30:19.344Z,107.47
2019-02-03T07:32:47.970Z,108.50
2019-02-03T07:35:16.876Z,108.30
2019-02-03T07:37:46.010Z,106.87
2019-02-03T07:40:16.931Z,103.87
2019-02-03T07:42:45.521Z,109.43
2019-02-03T07:45:14.251Z,106.30
2019-02-03T07:47:43.432Z,107.77
2019-02-03T07:50:14.700Z,107.77
2019-02-03T07:52:45.394Z,114.57
2019-02-03T07:55:15.191Z,104.03
2019-02-03T07:57:43.911Z,99.40
2019-02-03T08:00:15.140Z,115.60
2019-02-03T08:02:43.689Z,106.20
2019-02-03T08:05:13.057Z,98.40
2019-02-03T08:07:41.663Z,109.60
2019-02-03T08:10:24.515Z,108.60
2019-02-03T08:12:45.633Z,107.50
2019-02-03T08:15:16.499Z,98.70
2019-02-03T08:17:45.117Z,99.33
2019-02-03T08:20:19.095Z,100.90
2019-02-03T08:22:47.672Z,96.47
2019-02-03T08:25:17.963Z,87.90
2019-02-03T08:27:46.918Z,107.80
2019-02-03T08:30:18.951Z,100.57
2019-02-03T08:32:47.679Z,97.83
2019-02-03T08:35:16.214Z,105.53
2019-02-03T08:37:44.958Z,86.77
2019-02-03T08:40:36.646Z,101.20
2019-02-03T08:42:56.177Z,91.70
2019-02-03T08:45:25.854Z,92.70
2019-02-03T08:47:54.402Z,94.20
2019-02-03T08:50:24.227Z,84.90
2019-02-03T08:52:52.977Z,97.20
2019-02-03T08:55:21.631Z,95.07
2019-02-03T08:57:50.243Z,89.43
2019-02-03T09:00:24.279Z,89.17
2019-02-03T09:02:52.890Z,87.80
2019-02-03T09:05:21.515Z,88.40
2019-02-03T09:07:51.239Z,82.13
2019-02-03T09:10:22.381Z,83.70
2019-02-03T09:12:51.765Z,80.40
2019-02-03T09:15:29.181Z,79.17
2019-02-03T09:17:57.711Z,89.00
2019-02-03T09:20:36.102Z,93.87
2019-02-03T09:23:05.444Z,83.23
2019-02-03T09:25:33.988Z,71.40
2019-02-03T09:28:02.592Z,80.93
2019-02-03T09:30:33.782Z,73.30
2019-02-03T09:33:03.033Z,72.80
2019-02-03T09:35:31.655Z,78.87
2019-02-03T09:38:00.424Z,84.00
2019-02-03T09:40:31.671Z,74.37
2019-02-03T09:43:03.465Z,70.40
2019-02-03T09:45:32.474Z,84.77
2019-02-03T09:48:01.311Z,80.13
2019-02-03T09:50:31.377Z,76.00
2019-02-03T09:53:01.601Z,75.27
2019-02-03T09:55:30.945Z,77.63
2019-02-03T09:58:00.715Z,72.90
2019-02-03T10:00:35.351Z,69.03
2019-02-03T10:03:06.036Z,64.67
2019-02-03T10:05:37.142Z,70.43
2019-02-03T10:08:05.679Z,65.63
2019-02-03T10:10:36.982Z,73.90
2019-02-03T10:13:06.343Z,71.10
2019-02-03T10:15:34.968Z,58.37
2019-02-03T10:18:04.274Z,64.53
2019-02-03T10:20:32.868Z,51.93
2019-02-03T10:23:01.433Z,59.70
2019-02-03T10:25:31.183Z,57.47
2019-02-03T10:27:59.889Z,68.03
2019-02-03T10:30:29.983Z,61.77
2019-02-03T10:32:59.547Z,67.63
2019-02-03T10:35:30.243Z,56.00
2019-02-03T10:37:58.930Z,59.07
2019-02-03T10:40:29.805Z,62.90
2019-02-03T10:42:59.969Z,59.70
2019-02-03T10:45:29.164Z,63.60
2019-02-03T10:47:57.982Z,62.53
2019-02-03T10:50:31.774Z,59.33
2019-02-03T10:53:03.191Z,67.80
2019-02-03T10:55:33.071Z,62.67
2019-02-03T10:58:01.674Z,68.20
2019-02-03T11:00:36.194Z,78.23
2019-02-03T11:03:05.410Z,62.93
2019-02-03T11:05:41.043Z,60.87
2019-02-03T11:08:12.480Z,62.50
2019-02-03T11:10:41.235Z,61.87
2019-02-03T11:13:09.833Z,61.80
2019-02-03T11:15:38.659Z,67.13
2019-02-03T11:18:07.314Z,62.87
2019-02-03T11:20:36.287Z,53.87
2019-02-03T11:23:05.075Z,54.20
2019-02-03T11:25:34.246Z,55.37
2019-02-03T11:28:03.343Z,58.57
2019-02-03T11:30:32.126Z,59.80
2019-02-03T11:33:06.941Z,58.63
2019-02-03T11:35:32.214Z,55.30
2019-02-03T11:38:01.260Z,58.13
2019-02-03T11:40:32.118Z,60.30
2019-02-03T11:43:01.559Z,60.20
2019-02-03T11:45:33.245Z,54.23
2019-02-03T11:48:02.312Z,55.73
2019-02-03T11:50:36.727Z,62.33
2019-02-03T11:53:07.671Z,55.27
2019-02-03T11:55:36.205Z,60.33
2019-02-03T11:58:05.087Z,54.90
2019-02-03T12:00:33.739Z,49.17
2019-02-03T12:03:03.268Z,52.53
2019-02-03T12:05:32.067Z,54.77
2019-02-03T12:08:00.613Z,50.03
2019-02-03T12:10:30.675Z,52.37
2019-02-03T12:13:00.158Z,53.23
2019-02-03T12:15:28.994Z,51.90
2019-02-03T12:17:58.913Z,49.23
2019-02-03T12:20:27.779Z,53.03
2019-02-03T12:22:56.610Z,54.33
2019-02-03T12:25:30.770Z,52.80
2019-02-03T12:28:01.053Z,53.03
2019-02-03T12:30:32.395Z,48.67
2019-02-03T12:33:01.949Z,57.20
2019-02-03T12:35:30.693Z,52.87
2019-02-03T12:37:59.504Z,49.80
2019-02-03T12:40:30.556Z,55.13
2019-02-03T12:42:59.184Z,52.27
2019-02-03T12:45:29.529Z,51.83
2019-02-03T12:47:58.289Z,57.57
2019-02-03T12:50:26.841Z,55.03
2019-02-03T12:52:55.677Z,52.20
2019-02-03T12:55:27.764Z,59.87
2019-02-03T12:57:56.516Z,55.37
2019-02-03T13:00:27.429Z,52.43
2019-02-03T13:02:56.110Z,56.87
2019-02-03T13:05:26.287Z,58.07
2019-02-03T13:07:55.944Z,53.90
2019-02-03T13:10:27.371Z,55.23
2019-02-03T13:12:56.204Z,54.17
2019-02-03T13:15:45.824Z,52.47
2019-02-03T13:18:14.905Z,59.70
2019-02-03T13:20:43.818Z,55.23
2019-02-03T13:23:12.853Z,57.27
2019-02-03T13:25:41.640Z,52.17
2019-02-03T13:28:10.449Z,52.17
2019-02-03T13:30:47.703Z,47.77
2019-02-03T13:33:16.630Z,52.53
2019-02-03T13:35:45.172Z,51.60
2019-02-03T13:38:13.791Z,47.63
2019-02-03T13:40:42.381Z,48.87
2019-02-03T13:43:11.181Z,42.03
2019-02-03T13:45:40.289Z,40.57
2019-02-03T13:48:09.820Z,39.27
2019-02-03T13:50:38.438Z,50.10
2019-02-03T13:53:07.109Z,44.23
2019-02-03T13:55:35.754Z,38.80
2019-02-03T13:58:04.608Z,39.80
2019-02-03T14:00:40.863Z,36.37
2019-02-03T14:03:09.652Z,37.20
2019-02-03T14:05:38.269Z,44.27
2019-02-03T14:08:06.945Z,33.97
2019-02-03T14:10:36.222Z,37.47
2019-02-03T14:13:06.774Z,35.33
2019-02-03T14:15:35.452Z,30.70
2019-02-03T14:18:05.597Z,34.20
2019-02-03T14:20:34.485Z,28.23
2019-02-03T14:23:03.342Z,31.37
2019-02-03T14:25:32.422Z,32.40
2019-02-03T14:28:02.165Z,32.30
2019-02-03T14:30:40.225Z,30.43
2019-02-03T14:33:05.304Z,32.90
2019-02-03T14:35:34.028Z,30.90
2019-02-03T14:38:06.185Z,31.40
2019-02-03T14:40:35.032Z,28.03
2019-02-03T14:43:03.705Z,28.63
2019-02-03T14:45:32.349Z,32.40
2019-02-03T14:48:01.064Z,29.47
2019-02-03T14:50:29.771Z,35.40
2019-02-03T14:53:04.468Z,36.47
2019-02-03T14:55:36.592Z,35.33
2019-02-03T14:58:06.073Z,29.77
2019-02-03T15:00:43.914Z,30.67
2019-02-03T15:03:18.390Z,28.47
2019-02-03T15:05:47.341Z,30.13
2019-02-03T15:08:16.227Z,29.50
2019-02-03T15:10:44.835Z,30.10
2019-02-03T15:13:15.945Z,27.47
2019-02-03T15:15:43.855Z,33.17
2019-02-03T15:18:12.700Z,25.80
2019-02-03T15:20:41.832Z,33.10
2019-02-03T15:23:10.536Z,28.13
2019-02-03T15:25:39.276Z,24.47
2019-02-03T15:28:10.691Z,28.63
2019-02-03T15:30:42.455Z,30.07
2019-02-03T15:33:11.606Z,29.83
2019-02-03T15:35:40.397Z,26.63
2019-02-03T15:38:09.500Z,27.80
2019-02-03T15:40:38.255Z,27.10
2019-02-03T15:43:07.093Z,27.57
2019-02-03T15:45:36.065Z,28.90
2019-02-03T15:48:05.321Z,30.77
2019-02-03T15:50:34.011Z,27.07
2019-02-03T15:53:02.825Z,31.87
2019-02-03T15:55:34.612Z,33.10
2019-02-03T15:58:03.611Z,31.00
2019-02-03T16:00:37.864Z,25.47
2019-02-03T16:03:08.680Z,28.83
2019-02-03T16:05:37.487Z,29.33
2019-02-03T16:08:08.198Z,33.60
2019-02-03T16:10:36.977Z,37.87
2019-02-03T16:13:06.723Z,40.00
2019-02-03T16:15:36.146Z,34.63
2019-02-03T16:18:06.150Z,30.80
2019-02-03T16:20:35.286Z,27.13
2019-02-03T16:23:04.757Z,30.23
2019-02-03T16:25:35.158Z,35.20
2019-02-03T16:28:06.255Z,29.47
2019-02-03T16:30:39.712Z,26.20
2019-02-03T16:33:11.030Z,27.67
2019-02-03T16:35:42.040Z,30.27
2019-02-03T16:38:22.472Z,33.93
2019-02-03T16:40:43.887Z,29.67
2019-02-03T16:43:12.777Z,26.17
2019-02-03T16:45:41.482Z,35.47
2019-02-03T16:48:10.186Z,29.33
2019-02-03T16:50:38.919Z,27.93
2019-02-03T16:53:08.054Z,31.77
2019-02-03T16:55:36.758Z,28.47
2019-02-03T16:58:06.287Z,30.80
2019-02-03T17:00:34.879Z,30.20
2019-02-03T17:03:04.169Z,28.73
2019-02-03T17:05:34.162Z,25.80
2019-02-03T17:08:04.273Z,32.73
2019-02-03T17:10:34.041Z,24.93
2019-02-03T17:13:02.689Z,27.77
2019-02-03T17:15:37.200Z,34.27
2019-02-03T17:18:08.722Z,28.07
2019-02-03T17:20:39.047Z,29.10
2019-02-03T17:23:07.691Z,29.13
2019-02-03T17:25:54.988Z,31.07
2019-02-03T17:28:23.601Z,32.70
2019-02-03T17:30:53.584Z,30.30
2019-02-03T17:33:22.602Z,31.47
2019-02-03T17:35:54.671Z,24.13
2019-02-03T17:38:23.080Z,27.80
2019-02-03T17:40:51.877Z,28.10
2019-02-03T17:43:20.539Z,30.10
2019-02-03T17:45:49.531Z,28.30
2019-02-03T17:48:18.419Z,30.53
2019-02-03T17:50:47.249Z,28.27
2019-02-03T17:53:16.020Z,27.13
2019-02-03T17:55:44.947Z,28.80
2019-02-03T17:58:15.069Z,26.53
2019-02-03T18:00:45.395Z,29.00
2019-02-03T18:03:15.112Z,29.53
2019-02-03T18:05:43.921Z,28.07
2019-02-03T18:08:12.510Z,26.93
2019-02-03T18:10:41.087Z,28.87
2019-02-03T18:13:09.864Z,32.77
2019-02-03T18:15:38.549Z,26.90
2019-02-03T18:18:08.853Z,29.27
2019-02-03T18:20:37.551Z,27.03
2019-02-03T18:23:06.832Z,27.20
2019-02-03T18:25:35.598Z,28.70
2019-02-03T18:28:04.640Z,28.83
2019-02-03T18:30:37.829Z,28.30
2019-02-03T18:33:07.603Z,26.90
2019-02-03T18:35:36.246Z,24.90
2019-02-03T18:38:13.625Z,36.77
2019-02-03T18:40:42.482Z,24.63
2019-02-03T18:43:11.394Z,23.80
2019-02-03T18:45:40.269Z,27.03
2019-02-03T18:48:09.223Z,27.07
2019-02-03T18:50:39.700Z,23.37
2019-02-03T18:53:08.518Z,30.20
2019-02-03T18:55:43.569Z,28.60
2019-02-03T18:58:13.851Z,24.87
2019-02-03T19:00:43.024Z,23.13
2019-02-03T19:03:11.684Z,27.07
2019-02-03T19:05:44.417Z,23.93
2019-02-03T19:08:14.256Z,25.80
2019-02-03T19:10:43.096Z,21.60
2019-02-03T19:13:11.733Z,27.80
2019-02-03T19:15:40.898Z,20.53
2019-02-03T19:18:09.597Z,22.63
2019-02-03T19:20:43.081Z,22.60
2019-02-03T19:23:16.552Z,20.23
2019-02-03T19:25:45.331Z,24.87
2019-02-03T19:28:14.797Z,23.73
2019-02-03T19:30:44.091Z,26.37
2019-02-03T19:33:12.831Z,20.33
2019-02-03T19:35:41.734Z,20.50
2019-02-03T19:38:10.447Z,20.37
2019-02-03T19:40:39.086Z,22.90
2019-02-03T19:43:08.455Z,22.07
2019-02-03T19:45:37.843Z,20.53
2019-02-03T19:48:06.664Z,19.40
2019-02-03T19:50:40.639Z,19.53
2019-02-03T19:53:12.528Z,18.33
2019-02-03T19:55:41.545Z,17.40
2019-02-03T19:58:10.152Z,18.60
2019-02-03T20:00:41.230Z,21.77
2019-02-03T20:03:09.979Z,19.17
2019-02-03T20:05:38.984Z,16.20
2019-02-03T20:08:07.897Z,15.40
2019-02-03T20:10:37.900Z,13.93
2019-02-03T20:13:07.418Z,18.63
2019-02-03T20:15:36.389Z,15.47
2019-02-03T20:18:05.476Z,16.37
2019-02-03T20:20:37.413Z,13.33
2019-02-03T20:23:06.787Z,16.43
2019-02-03T20:25:36.590Z,12.60
2019-02-03T20:28:06.204Z,12.97
2019-02-03T20:30:38.592Z,15.73
2019-02-03T20:33:05.406Z,14.23
2019-02-03T20:35:34.309Z,12.53
2019-02-03T20:38:03.600Z,12.37
2019-02-03T20:40:43.798Z,18.87
2019-02-03T20:43:13.202Z,13.90
2019-02-03T20:45:49.265Z,12.77
2019-02-03T20:48:12.629Z,12.53
2019-02-03T20:50:41.723Z,13.63
2019-02-03T20:53:10.466Z,13.73
2019-02-03T20:55:39.451Z,10.97
2019-02-03T20:58:08.023Z,11.73
2019-02-03T21:00:37.789Z,15.10
2019-02-03T21:03:06.968Z,12.63
2019-02-03T21:05:35.878Z,14.67
2019-02-03T21:08:06.363Z,8.50
2019-02-03T21:10:34.927Z,12.77
2019-02-03T21:13:11.312Z,13.53
2019-02-03T21:15:37.276Z,11.00
2019-02-03T21:18:08.646Z,10.67
2019-02-03T21:20:37.640Z,13.50
2019-02-03T21:23:06.261Z,15.23
2019-02-03T21:25:35.272Z,8.70
2019-02-03T21:28:04.618Z,14.80
2019-02-03T21:30:35.405Z,11.00
2019-02-03T21:33:04.623Z,11.53
2019-02-03T21:35:33.476Z,10.70
2019-02-03T21:38:02.382Z,12.07
2019-02-03T21:40:32.263Z,6.43
2019-02-03T21:43:02.736Z,12.60
2019-02-03T21:45:31.361Z,9.50
2019-02-03T21:48:00.151Z,7.87
2019-02-03T21:50:30.843Z,6.80
2019-02-03T21:52:59.482Z,7.10
2019-02-03T21:55:28.170Z,16.47
2019-02-03T21:57:56.791Z,12.70
2019-02-03T22:00:30.941Z,9.63
2019-02-03T22:02:59.687Z,9.53
2019-02-03T22:05:28.955Z,9.33
2019-02-03T22:07:58.354Z,10.37
2019-02-03T22:10:35.360Z,7.77
2019-02-03T22:13:04.473Z,10.30
2019-02-03T22:15:33.526Z,8.67
2019-02-03T22:18:02.126Z,9.43
2019-02-03T22:20:31.165Z,8.70
2019-02-03T22:22:59.733Z,10.53
2019-02-03T22:25:28.247Z,9.20
2019-02-03T22:27:56.824Z,10.00
2019-02-03T22:30:30.981Z,10.23
2019-02-03T22:32:59.857Z,9.10
2019-02-03T22:35:28.523Z,10.27
2019-02-03T22:37:57.084Z,8.83
2019-02-03T22:40:26.342Z,8.40
2019-02-03T22:42:54.942Z,7.97
2019-02-03T22:45:24.927Z,10.60
2019-02-03T22:47:55.262Z,11.53
2019-02-03T22:50:26.824Z,10.67
2019-02-03T22:52:56.080Z,6.70
2019-02-03T22:55:25.011Z,7.70
2019-02-03T22:57:53.643Z,8.00
2019-02-03T23:00:51.798Z,8.60
2019-02-03T23:03:26.019Z,14.23
2019-02-03T23:05:54.880Z,11.30
2019-02-03T23:08:23.391Z,12.07
2019-02-03T23:10:51.928Z,9.23
2019-02-03T23:13:20.520Z,9.00
2019-02-03T23:15:49.638Z,10.80
2019-02-03T23:18:18.181Z,9.30
2019-02-03T23:20:46.760Z,9.00
2019-02-03T23:23:15.354Z,11.43
2019-02-03T23:25:43.931Z,10.37
2019-02-03T23:28:13.391Z,12.87
2019-02-03T23:30:42.160Z,9.80
2019-02-03T23:33:10.680Z,8.43
2019-02-03T23:35:39.255Z,9.27
2019-02-03T23:38:07.783Z,8.23
2019-02-03T23:40:36.433Z,14.80
2019-02-03T23:43:05.250Z,12.40
2019-02-03T23:45:34.296Z,15.30
2019-02-03T23:48:03.253Z,8.67
2019-02-03T23:50:31.858Z,10.03
2019-02-03T23:53:00.393Z,12.00
2019-02-03T23:55:29.028Z,8.40
2019-02-03T23:57:57.591Z,9.40
